createdAt,value
2019-04-09T00:00:02.081Z,8.75
2019-04-09T00:02:42.816Z,8.61
2019-04-09T00:05:12.802Z,8.52
2019-04-09T00:07:54.431Z,8.70
2019-04-09T00:10:15.317Z,8.60
2019-04-09T00:12:45.419Z,8.54
2019-04-09T00:15:15.666Z,8.52
2019-04-09T00:17:46.576Z,8.54
2019-04-09T00:20:18.533Z,8.42
2019-04-09T00:22:48.890Z,8.49
2019-04-09T00:25:18.647Z,8.32
2019-04-09T00:27:48.193Z,8.47
2019-04-09T00:30:17.785Z,8.31
2019-04-09T00:32:47.394Z,8.32
2019-04-09T00:35:16.998Z,8.24
2019-04-09T00:37:47.624Z,8.47
2019-04-09T00:40:17.641Z,8.33
2019-04-09T00:42:47.776Z,8.37
2019-04-09T00:45:17.858Z,8.37
2019-04-09T00:47:47.762Z,8.36
2019-04-09T00:50:17.391Z,8.25
2019-04-09T00:52:46.989Z,8.32
2019-04-09T00:55:16.860Z,8.30
2019-04-09T00:57:47.390Z,8.26
2019-04-09T01:00:19.155Z,8.24
2019-04-09T01:02:49.431Z,8.30
2019-04-09T01:05:19.602Z,8.10
2019-04-09T01:07:49.745Z,8.19
2019-04-09T01:10:19.428Z,8.22
2019-04-09T01:12:51.880Z,8.12
2019-04-09T01:15:20.428Z,8.14
2019-04-09T01:17:50.622Z,8.34
2019-04-09T01:20:21.014Z,8.03
2019-04-09T01:22:51.131Z,8.16
2019-04-09T01:25:39.255Z,8.05
2019-04-09T01:28:10.839Z,7.83
2019-04-09T01:30:51.275Z,7.67
2019-04-09T01:33:38.672Z,7.92
2019-04-09T01:36:17.032Z,7.81
2019-04-09T01:38:52.101Z,7.52
2019-04-09T01:41:25.476Z,7.58
2019-04-09T01:43:56.771Z,7.81
2019-04-09T01:46:31.018Z,7.70
2019-04-09T01:49:17.243Z,7.65
2019-04-09T01:51:47.127Z,7.56
2019-04-09T01:54:36.354Z,7.35
2019-04-09T01:57:05.806Z,7.52
2019-04-09T01:59:39.768Z,7.38
2019-04-09T02:02:11.206Z,7.52
2019-04-09T02:04:58.584Z,7.45
2019-04-09T02:07:39.046Z,7.59
2019-04-09T02:10:10.931Z,7.40
2019-04-09T02:12:42.694Z,7.34
2019-04-09T02:15:17.765Z,7.34
2019-04-09T02:17:47.067Z,7.19
2019-04-09T02:20:31.292Z,7.13
2019-04-09T02:23:03.092Z,7.12
2019-04-09T02:25:34.569Z,7.03
2019-04-09T02:28:08.943Z,6.85
2019-04-09T02:30:48.065Z,6.92
2019-04-09T02:33:21.434Z,7.00
2019-04-09T02:35:59.785Z,6.78
2019-04-09T02:38:34.563Z,6.88
2019-04-09T02:41:21.162Z,6.78
2019-04-09T02:44:08.663Z,6.51
2019-04-09T02:46:42.866Z,6.39
2019-04-09T02:49:14.700Z,6.44
2019-04-09T02:51:56.908Z,6.24
2019-04-09T02:54:27.275Z,6.39
2019-04-09T02:57:14.769Z,6.33
2019-04-09T03:00:03.418Z,6.50
2019-04-09T03:02:44.021Z,6.36
2019-04-09T03:05:18.295Z,6.54
2019-04-09T03:07:50.197Z,6.46
2019-04-09T03:10:34.006Z,6.55
2019-04-09T03:13:06.378Z,6.31
2019-04-09T03:15:36.091Z,6.43
2019-04-09T03:18:24.960Z,6.24
2019-04-09T03:21:08.574Z,6.18
2019-04-09T03:23:58.275Z,6.24
2019-04-09T03:26:27.658Z,6.35
2019-04-09T03:29:02.852Z,6.22
2019-04-09T03:34:20.543Z,6.10
2019-04-09T03:37:08.402Z,6.17
2019-04-09T03:39:46.883Z,6.08
2019-04-09T03:42:18.601Z,5.96
2019-04-09T03:44:53.816Z,6.14
2019-04-09T03:47:23.174Z,6.34
2019-04-09T03:50:12.900Z,6.44
2019-04-09T03:52:51.722Z,6.40
2019-04-09T03:55:40.741Z,6.42
2019-04-09T03:58:19.086Z,6.36
2019-04-09T04:00:47.723Z,6.23
2019-04-09T04:03:30.652Z,6.11
2019-04-09T04:06:11.665Z,6.30
2019-04-09T04:08:42.925Z,6.14
2019-04-09T04:11:23.266Z,6.10
2019-04-09T04:13:53.557Z,6.06
2019-04-09T04:16:24.118Z,5.91
2019-04-09T04:19:11.905Z,6.19
2019-04-09T04:21:52.499Z,6.02
2019-04-09T04:24:26.672Z,5.95
2019-04-09T04:27:14.207Z,5.85
2019-04-09T04:29:45.942Z,5.99
2019-04-09T04:32:23.097Z,5.99
2019-04-09T04:35:10.179Z,5.98
2019-04-09T04:37:47.395Z,5.86
2019-04-09T04:40:21.996Z,5.99
2019-04-09T04:42:55.153Z,5.89
2019-04-09T04:45:29.198Z,5.83
2019-04-09T04:48:09.477Z,5.95
2019-04-09T04:50:41.758Z,6.10
2019-04-09T04:53:13.273Z,5.90
2019-04-09T04:55:49.417Z,5.88
2019-04-09T04:58:20.612Z,5.99
2019-04-09T05:00:57.595Z,5.71
2019-04-09T05:03:36.084Z,6.06
2019-04-09T05:06:19.965Z,5.97
2019-04-09T05:09:02.827Z,5.93
2019-04-09T05:11:33.281Z,5.88
2019-04-09T05:14:17.133Z,6.03
2019-04-09T05:16:48.851Z,6.23
2019-04-09T05:19:36.170Z,6.32
2019-04-09T05:22:17.003Z,6.35
2019-04-09T05:24:46.980Z,6.18
2019-04-09T05:27:27.287Z,6.43
2019-04-09T05:30:02.612Z,6.38
2019-04-09T05:32:50.021Z,6.42
2019-04-09T05:35:37.418Z,6.41
2019-04-09T05:38:11.442Z,6.43
2019-04-09T05:41:00.086Z,6.35
2019-04-09T05:43:48.090Z,6.72
2019-04-09T05:46:19.575Z,6.53
2019-04-09T05:49:11.854Z,6.65
2019-04-09T05:51:45.977Z,6.73
2019-04-09T05:54:33.651Z,6.73
2019-04-09T05:57:21.978Z,6.74
2019-04-09T05:59:59.800Z,7.11
2019-04-09T06:02:31.785Z,7.24
2019-04-09T06:05:02.625Z,7.11
2019-04-09T06:07:53.475Z,7.29
2019-04-09T06:10:23.961Z,7.30
2019-04-09T06:12:53.728Z,7.32
2019-04-09T06:15:23.695Z,7.45
2019-04-09T06:17:54.014Z,7.64
2019-04-09T06:20:25.656Z,7.62
2019-04-09T06:22:55.209Z,7.71
2019-04-09T06:25:25.850Z,8.06
2019-04-09T06:27:55.781Z,8.10
2019-04-09T06:30:27.114Z,7.92
2019-04-09T06:32:59.617Z,8.14
2019-04-09T06:35:31.944Z,8.06
2019-04-09T06:38:19.531Z,8.06
2019-04-09T06:40:55.253Z,8.22
2019-04-09T06:43:30.406Z,8.23
2019-04-09T06:45:59.835Z,8.40
2019-04-09T06:48:34.158Z,8.42
2019-04-09T06:51:08.277Z,8.69
2019-04-09T06:53:37.576Z,8.79
2019-04-09T06:56:15.981Z,9.38
2019-04-09T06:58:55.984Z,9.54
2019-04-09T07:01:35.815Z,9.16
2019-04-09T07:04:23.750Z,9.25
2019-04-09T07:07:01.836Z,9.43
2019-04-09T07:09:51.688Z,9.66
2019-04-09T07:12:23.012Z,10.00
2019-04-09T07:14:55.219Z,9.74
2019-04-09T07:17:31.584Z,10.16
2019-04-09T07:20:19.963Z,10.29
2019-04-09T07:22:55.819Z,10.58
2019-04-09T07:25:27.883Z,10.57
2019-04-09T07:27:58.122Z,11.07
2019-04-09T07:30:32.212Z,10.92
2019-04-09T07:33:11.244Z,11.52
2019-04-09T07:35:50.652Z,11.76
2019-04-09T07:38:22.586Z,12.26
2019-04-09T07:41:06.185Z,12.10
2019-04-09T07:43:38.955Z,12.45
2019-04-09T07:46:32.217Z,12.65
2019-04-09T07:49:03.822Z,12.64
2019-04-09T07:51:52.187Z,13.22
2019-04-09T07:54:46.002Z,13.95
2019-04-09T07:57:19.809Z,13.94
2019-04-09T08:00:01.946Z,14.38
2019-04-09T08:02:30.558Z,14.91
2019-04-09T08:05:18.006Z,15.49
2019-04-09T08:07:59.591Z,15.90
2019-04-09T08:10:31.152Z,15.92
2019-04-09T08:13:06.464Z,15.78
2019-04-09T08:15:53.900Z,16.90
2019-04-09T08:18:33.597Z,16.92
2019-04-09T08:21:12.389Z,17.09
2019-04-09T08:24:02.018Z,17.35
2019-04-09T08:26:48.860Z,17.65
2019-04-09T08:29:40.066Z,17.27
2019-04-09T08:32:29.371Z,17.98
2019-04-09T08:35:13.916Z,18.57
2019-04-09T08:37:56.699Z,18.96
2019-04-09T08:40:27.391Z,19.48
2019-04-09T08:43:05.263Z,19.39
2019-04-09T08:45:53.610Z,19.40
2019-04-09T08:48:41.214Z,19.52
2019-04-09T08:51:20.960Z,20.37
2019-04-09T08:54:02.515Z,22.11
2019-04-09T08:56:44.598Z,21.07
2019-04-09T08:59:34.730Z,21.67
2019-04-09T09:02:16.783Z,21.26
2019-04-09T09:04:54.181Z,21.15
2019-04-09T09:09:57.484Z,20.97
2019-04-09T09:15:25.049Z,22.10
2019-04-09T09:18:01.408Z,22.61
2019-04-09T09:20:50.341Z,23.20
2019-04-09T09:23:22.318Z,23.60
2019-04-09T09:26:09.471Z,22.74
2019-04-09T09:28:57.633Z,22.77
2019-04-09T09:31:33.975Z,23.49
2019-04-09T09:34:06.551Z,24.94
2019-04-09T09:36:45.800Z,24.83
2019-04-09T09:39:18.669Z,25.06
2019-04-09T09:42:06.639Z,24.40
2019-04-09T09:44:43.873Z,23.99
2019-04-09T09:47:22.771Z,23.93
2019-04-09T09:50:07.022Z,24.83
2019-04-09T09:52:52.914Z,24.38
2019-04-09T09:55:37.067Z,23.97
2019-04-09T09:58:24.610Z,25.54
2019-04-09T10:01:06.361Z,26.00
2019-04-09T10:03:29.266Z,26.37
2019-04-09T10:06:05.815Z,27.15
2019-04-09T10:08:52.180Z,27.05
2019-04-09T10:11:37.510Z,27.76
2019-04-09T10:14:07.692Z,26.39
2019-04-09T10:16:54.070Z,25.77
2019-04-09T10:19:28.498Z,27.91
2019-04-09T10:22:20.612Z,28.46
2019-04-09T10:24:52.967Z,28.25
2019-04-09T10:27:39.271Z,27.66
2019-04-09T10:30:27.750Z,27.49
2019-04-09T10:33:02.603Z,25.82
2019-04-09T10:35:35.552Z,24.97
2019-04-09T10:38:17.009Z,26.92
2019-04-09T10:40:50.497Z,27.20
2019-04-09T10:43:26.184Z,27.58
2019-04-09T10:46:01.010Z,27.94
2019-04-09T10:48:32.484Z,28.12
2019-04-09T10:51:06.474Z,28.86
2019-04-09T10:53:37.599Z,29.39
2019-04-09T10:56:19.319Z,28.86
2019-04-09T10:58:54.070Z,28.18
2019-04-09T11:01:42.270Z,26.88
2019-04-09T11:04:13.546Z,25.64
2019-04-09T11:07:03.198Z,24.33
2019-04-09T11:09:32.650Z,25.29
2019-04-09T11:12:04.696Z,26.27
2019-04-09T11:14:43.012Z,27.44
2019-04-09T11:17:29.061Z,27.46
2019-04-09T11:20:10.864Z,27.98
2019-04-09T11:22:55.258Z,27.98
2019-04-09T11:25:28.118Z,27.23
2019-04-09T11:28:02.205Z,26.64
2019-04-09T11:30:36.180Z,25.66
2019-04-09T11:33:09.378Z,26.76
2019-04-09T11:35:56.836Z,25.77
2019-04-09T11:38:26.255Z,25.55
2019-04-09T11:41:10.680Z,23.42
2019-04-09T11:43:56.285Z,22.88
2019-04-09T11:46:38.845Z,24.67
2019-04-09T11:49:10.052Z,23.93
2019-04-09T11:51:54.221Z,24.00
2019-04-09T11:54:32.436Z,24.13
2019-04-09T11:57:22.794Z,24.97
2019-04-09T11:59:57.413Z,24.28
2019-04-09T12:02:33.229Z,24.30
2019-04-09T12:05:07.972Z,24.68
2019-04-09T12:07:42.223Z,24.44
2019-04-09T12:10:18.527Z,25.82
2019-04-09T12:12:51.796Z,26.99
2019-04-09T12:15:23.273Z,25.26
2019-04-09T12:18:07.369Z,24.08
2019-04-09T12:20:55.024Z,22.61
2019-04-09T12:23:32.242Z,21.94
2019-04-09T12:26:04.310Z,23.26
2019-04-09T12:28:42.108Z,24.63
2019-04-09T12:31:12.118Z,25.26
2019-04-09T12:33:58.477Z,26.17
2019-04-09T12:36:45.547Z,27.05
2019-04-09T12:39:36.678Z,27.22
2019-04-09T12:42:10.591Z,23.98
2019-04-09T12:44:40.186Z,23.62
2019-04-09T12:47:17.688Z,20.95
2019-04-09T12:49:51.818Z,19.97
2019-04-09T12:52:42.056Z,20.23
2019-04-09T12:55:19.497Z,20.60
2019-04-09T12:57:54.392Z,20.96
2019-04-09T13:00:28.766Z,22.78
2019-04-09T13:02:58.225Z,24.32
2019-04-09T13:05:32.229Z,25.14
2019-04-09T13:08:19.840Z,25.27
2019-04-09T13:11:07.090Z,22.71
2019-04-09T13:13:55.153Z,20.88
2019-04-09T13:16:43.351Z,20.68
2019-04-09T13:19:15.614Z,20.44
2019-04-09T13:21:49.569Z,22.27
2019-04-09T13:24:27.338Z,21.17
2019-04-09T13:27:02.613Z,19.44
2019-04-09T13:29:52.228Z,18.99
2019-04-09T13:32:37.341Z,18.03
2019-04-09T13:35:03.830Z,17.62
2019-04-09T13:37:41.261Z,17.87
2019-04-09T13:40:16.753Z,19.11
2019-04-09T13:42:51.172Z,19.39
2019-04-09T13:45:23.951Z,18.37
2019-04-09T13:47:55.401Z,17.98
2019-04-09T13:50:24.867Z,17.98
2019-04-09T13:52:56.600Z,18.00
2019-04-09T13:55:26.180Z,17.86
2019-04-09T13:57:56.250Z,17.59
2019-04-09T14:00:29.232Z,17.44
2019-04-09T14:03:26.149Z,17.15
2019-04-09T14:05:43.600Z,17.01
2019-04-09T14:08:13.184Z,17.06
2019-04-09T14:10:47.908Z,18.00
2019-04-09T14:13:14.108Z,18.55
2019-04-09T14:15:44.692Z,17.73
2019-04-09T14:18:14.524Z,17.71
2019-04-09T14:20:45.330Z,17.50
2019-04-09T14:23:15.424Z,17.17
2019-04-09T14:25:45.455Z,16.53
2019-04-09T14:28:15.478Z,16.46
2019-04-09T14:30:45.416Z,16.64
2019-04-09T14:33:14.917Z,16.96
2019-04-09T14:35:44.503Z,17.35
2019-04-09T14:38:14.132Z,17.25
2019-04-09T14:40:43.976Z,17.25
2019-04-09T14:43:15.007Z,17.03
2019-04-09T14:45:44.930Z,16.98
2019-04-09T14:48:15.026Z,17.00
2019-04-09T14:50:44.736Z,16.62
2019-04-09T14:53:15.034Z,16.59
2019-04-09T14:55:44.962Z,16.70
2019-04-09T14:58:15.159Z,16.91
2019-04-09T15:00:45.619Z,17.17
2019-04-09T15:03:24.245Z,17.23
2019-04-09T15:05:47.591Z,17.06
2019-04-09T15:08:17.535Z,16.91
2019-04-09T15:10:47.215Z,17.06
2019-04-09T15:13:19.871Z,16.67
2019-04-09T15:15:49.488Z,16.78
2019-04-09T15:18:19.662Z,16.71
2019-04-09T15:21:08.426Z,17.11
2019-04-09T15:23:38.773Z,17.01
2019-04-09T15:26:09.653Z,16.85
2019-04-09T15:28:39.920Z,16.28
2019-04-09T15:31:10.627Z,16.08
2019-04-09T15:33:41.068Z,16.11
2019-04-09T15:36:11.552Z,16.09
2019-04-09T15:38:41.323Z,16.33
2019-04-09T15:41:11.247Z,16.37
2019-04-09T15:43:44.948Z,15.78
2019-04-09T15:46:15.087Z,15.73
2019-04-09T15:48:45.391Z,15.35
2019-04-09T15:51:15.886Z,15.07
2019-04-09T15:53:47.015Z,15.22
2019-04-09T15:56:18.860Z,15.26
2019-04-09T15:58:48.917Z,15.16
2019-04-09T16:01:19.141Z,15.29
2019-04-09T16:03:55.421Z,15.18
2019-04-09T16:06:21.650Z,15.11
2019-04-09T16:08:51.658Z,14.87
2019-04-09T16:11:22.418Z,14.62
2019-04-09T16:13:53.703Z,14.42
2019-04-09T16:16:23.547Z,14.51
2019-04-09T16:18:53.303Z,14.20
2019-04-09T16:21:23.414Z,14.10
2019-04-09T16:23:52.923Z,14.13
2019-04-09T16:26:22.561Z,13.84
2019-04-09T16:28:52.142Z,13.78
2019-04-09T16:31:22.302Z,13.78
2019-04-09T16:33:59.111Z,13.83
2019-04-09T16:36:29.976Z,13.53
2019-04-09T16:39:02.014Z,13.81
2019-04-09T16:41:32.048Z,13.47
2019-04-09T16:44:01.936Z,13.33
2019-04-09T16:46:32.695Z,13.28
2019-04-09T16:49:02.722Z,13.56
2019-04-09T16:51:33.361Z,13.47
2019-04-09T16:54:04.079Z,13.53
2019-04-09T16:56:36.581Z,13.44
2019-04-09T16:59:06.256Z,13.25
2019-04-09T17:01:36.007Z,13.46
2019-04-09T17:04:18.471Z,13.18
2019-04-09T17:06:37.793Z,13.46
2019-04-09T17:09:24.541Z,13.16
2019-04-09T17:11:42.227Z,13.02
2019-04-09T17:14:11.889Z,12.85
2019-04-09T17:16:46.822Z,12.79
2019-04-09T17:19:17.224Z,12.80
2019-04-09T17:21:47.803Z,12.32
2019-04-09T17:24:18.648Z,12.37
2019-04-09T17:26:50.645Z,12.24
2019-04-09T17:29:21.181Z,12.10
2019-04-09T17:31:51.075Z,12.18
2019-04-09T17:34:27.621Z,12.19
2019-04-09T17:36:52.462Z,12.15
2019-04-09T17:39:22.174Z,12.33
2019-04-09T17:42:14.475Z,11.92
2019-04-09T17:44:44.309Z,11.81
2019-04-09T17:47:14.086Z,11.80
2019-04-09T17:49:47.059Z,11.64
2019-04-09T17:52:17.074Z,11.35
2019-04-09T17:54:46.780Z,11.44
2019-04-09T17:57:18.232Z,11.35
2019-04-09T17:59:48.136Z,11.36
2019-04-09T18:02:18.266Z,11.39
2019-04-09T18:04:52.710Z,10.93
2019-04-09T18:07:20.221Z,11.08
2019-04-09T18:09:50.069Z,11.02
2019-04-09T18:12:20.938Z,10.77
2019-04-09T18:14:53.553Z,10.54
2019-04-09T18:17:23.254Z,10.51
2019-04-09T18:19:53.041Z,10.63
2019-04-09T18:22:24.829Z,10.46
2019-04-09T18:24:55.441Z,10.28
2019-04-09T18:27:27.666Z,10.29
2019-04-09T18:30:02.364Z,10.43
2019-04-09T18:32:32.107Z,10.31
2019-04-09T18:35:03.877Z,10.19
2019-04-09T18:37:34.346Z,9.91
2019-04-09T18:40:08.154Z,9.97
2019-04-09T18:42:37.708Z,9.84
2019-04-09T18:45:08.028Z,9.91
2019-04-09T18:47:38.207Z,9.87
2019-04-09T18:50:10.663Z,9.69
2019-04-09T18:52:40.679Z,9.61
2019-04-09T18:55:11.286Z,9.64
2019-04-09T18:57:41.909Z,9.58
2019-04-09T19:00:13.883Z,9.75
2019-04-09T19:02:45.193Z,9.61
2019-04-09T19:05:17.124Z,9.37
2019-04-09T19:07:48.042Z,9.62
2019-04-09T19:10:18.823Z,9.49
2019-04-09T19:12:48.952Z,9.58
2019-04-09T19:15:18.971Z,9.29
2019-04-09T19:17:49.274Z,9.26
2019-04-09T19:20:19.562Z,9.29
2019-04-09T19:22:51.162Z,9.31
2019-04-09T19:25:20.683Z,9.19
2019-04-09T19:27:50.197Z,9.16
2019-04-09T19:30:20.809Z,8.93
2019-04-09T19:32:51.557Z,9.04
2019-04-09T19:35:27.880Z,8.96
2019-04-09T19:37:53.055Z,8.99
2019-04-09T19:40:24.293Z,8.98
2019-04-09T19:42:54.050Z,8.98
2019-04-09T19:45:28.364Z,8.74
2019-04-09T19:47:58.041Z,8.59
2019-04-09T19:50:27.855Z,8.80
2019-04-09T19:52:57.862Z,8.63
2019-04-09T19:55:28.527Z,8.63
2019-04-09T19:57:58.360Z,8.45
2019-04-09T20:00:31.887Z,8.48
2019-04-09T20:03:05.270Z,8.55
2019-04-09T20:05:38.140Z,8.46
2019-04-09T20:08:09.138Z,8.54
2019-04-09T20:10:40.688Z,8.40
2019-04-09T20:13:12.517Z,8.19
2019-04-09T20:15:42.345Z,8.32
2019-04-09T20:18:13.343Z,8.33
2019-04-09T20:20:43.258Z,8.28
2019-04-09T20:23:14.138Z,8.32
2019-04-09T20:25:44.015Z,8.29
2019-04-09T20:28:14.081Z,8.26
2019-04-09T20:30:44.061Z,8.13
2019-04-09T20:33:14.932Z,8.21
2019-04-09T20:35:49.822Z,8.10
2019-04-09T20:38:18.597Z,7.81
2019-04-09T20:40:48.266Z,8.10
2019-04-09T20:43:18.405Z,8.19
2019-04-09T20:45:48.885Z,8.17
2019-04-09T20:48:19.412Z,8.26
2019-04-09T20:50:50.189Z,8.15
2019-04-09T20:53:20.483Z,7.95
2019-04-09T20:55:50.108Z,8.01
2019-04-09T20:58:20.429Z,7.72
2019-04-09T21:00:50.346Z,7.91
2019-04-09T21:03:22.864Z,7.65
2019-04-09T21:06:00.239Z,7.75
2019-04-09T21:08:25.795Z,7.73
2019-04-09T21:10:55.595Z,7.71
2019-04-09T21:13:25.378Z,7.86
2019-04-09T21:15:55.781Z,7.80
2019-04-09T21:18:25.543Z,7.66
2019-04-09T21:20:55.413Z,7.70
2019-04-09T21:23:26.221Z,7.57
2019-04-09T21:25:55.979Z,7.47
2019-04-09T21:28:25.725Z,7.70
2019-04-09T21:30:55.384Z,7.62
2019-04-09T21:33:25.019Z,7.75
2019-04-09T21:36:05.221Z,7.75
2019-04-09T21:38:27.637Z,7.60
2019-04-09T21:40:58.167Z,7.59
2019-04-09T21:43:28.032Z,7.72
2019-04-09T21:45:59.081Z,7.74
2019-04-09T21:48:29.272Z,7.74
2019-04-09T21:50:59.415Z,7.77
2019-04-09T21:53:29.962Z,7.60
2019-04-09T21:56:00.529Z,7.58
2019-04-09T21:58:30.863Z,7.50
2019-04-09T22:01:07.030Z,7.56
2019-04-09T22:03:36.823Z,7.65
2019-04-09T22:06:18.655Z,7.68
2019-04-09T22:08:38.300Z,7.65
2019-04-09T22:11:08.106Z,7.54
2019-04-09T22:13:37.716Z,7.58
2019-04-09T22:16:09.521Z,7.55
2019-04-09T22:18:39.610Z,7.46
2019-04-09T22:21:09.979Z,7.49
2019-04-09T22:23:46.353Z,7.58
2019-04-09T22:26:11.531Z,7.55
2019-04-09T22:28:44.830Z,7.29
2019-04-09T22:31:16.100Z,7.31
2019-04-09T22:33:46.746Z,7.18
2019-04-09T22:36:29.489Z,7.26
2019-04-09T22:38:47.672Z,7.36
2019-04-09T22:41:17.455Z,7.32
2019-04-09T22:43:47.388Z,7.25
2019-04-09T22:46:20.217Z,7.21
2019-04-09T22:48:52.759Z,7.21
2019-04-09T22:51:23.105Z,7.30
2019-04-09T22:53:52.977Z,7.27
2019-04-09T22:56:22.867Z,7.17
2019-04-09T22:58:53.279Z,7.30
2019-04-09T23:01:26.490Z,7.16
2019-04-09T23:03:55.938Z,7.06
2019-04-09T23:06:27.997Z,6.97
2019-04-09T23:09:05.460Z,6.76
2019-04-09T23:11:36.961Z,6.96
2019-04-09T23:14:06.659Z,6.91
2019-04-09T23:16:37.401Z,6.95
2019-04-09T23:19:07.800Z,6.80
2019-04-09T23:21:37.701Z,7.07
2019-04-09T23:24:07.520Z,6.82
2019-04-09T23:26:37.465Z,6.91
2019-04-09T23:29:07.209Z,6.91
2019-04-09T23:31:36.949Z,6.91
2019-04-09T23:34:06.551Z,6.87
2019-04-09T23:36:36.266Z,6.95
2019-04-09T23:39:08.334Z,6.82
2019-04-09T23:41:38.245Z,6.78
2019-04-09T23:44:08.175Z,6.90
2019-04-09T23:46:37.872Z,6.88
2019-04-09T23:49:07.608Z,6.84
2019-04-09T23:51:37.632Z,6.74
2019-04-09T23:54:07.690Z,6.63
2019-04-09T23:56:37.921Z,6.59
2019-04-09T23:59:10.351Z,6.63
